sensor_id;sensor_type;location;lat;lon;timestamp;temperature;humidity
17174;DHT22;8702;48.130;-1.696;2022-09-04T00:01:53;19.90;99.90
17174;DHT22;8702;48.130;-1.696;2022-09-04T00:04:29;20.00;99.90
17174;DHT22;8702;48.130;-1.696;2022-09-04T00:07:07;20.00;99.90
17174;DHT22;8702;48.130;-1.696;2022-09-04T00:09:44;20.00;99.90
17174;DHT22;8702;48.130;-1.696;2022-09-04T00:12:21;20.00;99.90
17174;DHT22;8702;48.130;-1.696;2022-09-04T00:14:55;20.00;99.90
17174;DHT22;8702;48.130;-1.696;2022-09-04T00:17:29;20.00;99.90
17174;DHT22;8702;48.130;-1.696;2022-09-04T00:20:00;20.10;99.90
17174;DHT22;8702;48.130;-1.696;2022-09-04T00:22:31;20.10;99.90
17174;DHT22;8702;48.130;-1.696;2022-09-04T00:25:08;20.10;99.90
17174;DHT22;8702;48.130;-1.696;2022-09-04T00:27:40;20.10;99.90
17174;DHT22;8702;48.130;-1.696;2022-09-04T00:30:13;20.10;99.90
17174;DHT22;8702;48.130;-1.696;2022-09-04T00:32:45;20.10;99.90
17174;DHT22;8702;48.130;-1.696;2022-09-04T00:35:19;20.10;99.90
17174;DHT22;8702;48.130;-1.696;2022-09-04T00:37:51;20.10;99.90
17174;DHT22;8702;48.130;-1.696;2022-09-04T00:40:26;20.10;99.90
17174;DHT22;8702;48.130;-1.696;2022-09-04T00:49:11;20.10;99.90
17174;DHT22;8702;48.130;-1.696;2022-09-04T00:51:52;20.00;99.90
17174;DHT22;8702;48.130;-1.696;2022-09-04T00:54:34;20.00;99.90
17174;DHT22;8702;48.130;-1.696;2022-09-04T00:57:39;20.10;99.90
17174;DHT22;8702;48.130;-1.696;2022-09-04T01:00:11;20.10;99.90
17174;DHT22;8702;48.130;-1.696;2022-09-04T01:05:51;20.10;99.90
17174;DHT22;8702;48.130;-1.696;2022-09-04T01:08:29;20.00;99.90
17174;DHT22;8702;48.130;-1.696;2022-09-04T01:11:06;20.00;99.90
17174;DHT22;8702;48.130;-1.696;2022-09-04T01:13:41;20.00;99.90
17174;DHT22;8702;48.130;-1.696;2022-09-04T01:16:12;20.00;99.90
17174;DHT22;8702;48.130;-1.696;2022-09-04T01:18:46;20.00;99.90
17174;DHT22;8702;48.130;-1.696;2022-09-04T01:21:23;19.90;99.90
17174;DHT22;8702;48.130;-1.696;2022-09-04T01:24:16;19.80;99.90
17174;DHT22;8702;48.130;-1.696;2022-09-04T01:26:51;19.80;99.90
17174;DHT22;8702;48.130;-1.696;2022-09-04T01:29:27;19.80;99.90
17174;DHT22;8702;48.130;-1.696;2022-09-04T01:32:06;19.80;99.90
17174;DHT22;8702;48.130;-1.696;2022-09-04T01:34:40;19.80;99.90
17174;DHT22;8702;48.130;-1.696;2022-09-04T01:37:29;19.80;99.90
17174;DHT22;8702;48.130;-1.696;2022-09-04T01:40:22;19.80;99.90
17174;DHT22;8702;48.130;-1.696;2022-09-04T01:42:56;19.80;99.90
17174;DHT22;8702;48.130;-1.696;2022-09-04T01:45:34;19.70;99.90
17174;DHT22;8702;48.130;-1.696;2022-09-04T01:48:04;19.70;99.90
17174;DHT22;8702;48.130;-1.696;2022-09-04T01:50:36;19.70;99.90
17174;DHT22;8702;48.130;-1.696;2022-09-04T01:53:09;19.70;99.90
17174;DHT22;8702;48.130;-1.696;2022-09-04T01:55:43;19.80;99.90
17174;DHT22;8702;48.130;-1.696;2022-09-04T01:58:15;19.70;99.90
17174;DHT22;8702;48.130;-1.696;2022-09-04T02:00:54;19.70;99.90
17174;DHT22;8702;48.130;-1.696;2022-09-04T02:03:28;19.70;99.90
17174;DHT22;8702;48.130;-1.696;2022-09-04T02:06:06;19.80;99.90
17174;DHT22;8702;48.130;-1.696;2022-09-04T02:08:46;19.80;99.90
17174;DHT22;8702;48.130;-1.696;2022-09-04T02:11:17;19.80;99.90
17174;DHT22;8702;48.130;-1.696;2022-09-04T02:14:02;19.80;99.90
17174;DHT22;8702;48.130;-1.696;2022-09-04T02:16:43;19.80;99.90
17174;DHT22;8702;48.130;-1.696;2022-09-04T02:19:20;19.80;99.90
17174;DHT22;8702;48.130;-1.696;2022-09-04T02:21:57;19.80;99.90
17174;DHT22;8702;48.130;-1.696;2022-09-04T02:24:33;19.70;99.90
17174;DHT22;8702;48.130;-1.696;2022-09-04T02:27:06;19.70;99.90
17174;DHT22;8702;48.130;-1.696;2022-09-04T02:29:41;19.70;99.90
17174;DHT22;8702;48.130;-1.696;2022-09-04T02:32:15;19.70;99.90
17174;DHT22;8702;48.130;-1.696;2022-09-04T02:34:48;19.60;99.90
17174;DHT22;8702;48.130;-1.696;2022-09-04T02:37:24;19.60;99.90
17174;DHT22;8702;48.130;-1.696;2022-09-04T02:40:02;19.60;99.90
17174;DHT22;8702;48.130;-1.696;2022-09-04T02:42:37;19.70;99.90
17174;DHT22;8702;48.130;-1.696;2022-09-04T02:45:17;19.70;99.90
17174;DHT22;8702;48.130;-1.696;2022-09-04T02:47:49;19.70;99.90
17174;DHT22;8702;48.130;-1.696;2022-09-04T02:50:29;19.60;99.90
17174;DHT22;8702;48.130;-1.696;2022-09-04T02:53:12;19.60;99.90
17174;DHT22;8702;48.130;-1.696;2022-09-04T02:55:51;19.60;99.90
17174;DHT22;8702;48.130;-1.696;2022-09-04T02:58:30;19.70;99.90
17174;DHT22;8702;48.130;-1.696;2022-09-04T03:01:05;19.60;99.90
17174;DHT22;8702;48.130;-1.696;2022-09-04T03:03:38;19.70;99.90
17174;DHT22;8702;48.130;-1.696;2022-09-04T03:06:10;19.70;99.90
17174;DHT22;8702;48.130;-1.696;2022-09-04T03:08:44;19.70;99.90
17174;DHT22;8702;48.130;-1.696;2022-09-04T03:11:17;19.70;99.90
17174;DHT22;8702;48.130;-1.696;2022-09-04T03:13:50;19.70;99.90
17174;DHT22;8702;48.130;-1.696;2022-09-04T03:16:26;19.70;99.90
17174;DHT22;8702;48.130;-1.696;2022-09-04T03:19:06;19.70;99.90
17174;DHT22;8702;48.130;-1.696;2022-09-04T03:21:40;19.60;99.90
17174;DHT22;8702;48.130;-1.696;2022-09-04T03:24:16;19.60;99.90
17174;DHT22;8702;48.130;-1.696;2022-09-04T03:26:49;19.60;99.90
17174;DHT22;8702;48.130;-1.696;2022-09-04T03:29:24;19.60;99.90
17174;DHT22;8702;48.130;-1.696;2022-09-04T03:32:03;19.50;99.90
17174;DHT22;8702;48.130;-1.696;2022-09-04T03:34:37;19.50;99.90
17174;DHT22;8702;48.130;-1.696;2022-09-04T03:37:21;19.50;99.90
17174;DHT22;8702;48.130;-1.696;2022-09-04T03:39:59;19.50;99.90
17174;DHT22;8702;48.130;-1.696;2022-09-04T03:42:37;19.40;99.90
17174;DHT22;8702;48.130;-1.696;2022-09-04T03:45:17;19.40;99.90
17174;DHT22;8702;48.130;-1.696;2022-09-04T03:47:59;19.40;99.90
17174;DHT22;8702;48.130;-1.696;2022-09-04T03:50:34;19.40;99.90
17174;DHT22;8702;48.130;-1.696;2022-09-04T03:53:15;19.50;99.90
17174;DHT22;8702;48.130;-1.696;2022-09-04T03:56:02;19.40;99.90
17174;DHT22;8702;48.130;-1.696;2022-09-04T03:58:38;19.40;99.90
17174;DHT22;8702;48.130;-1.696;2022-09-04T04:01:15;19.40;99.90
17174;DHT22;8702;48.130;-1.696;2022-09-04T04:04:00;19.40;99.90
17174;DHT22;8702;48.130;-1.696;2022-09-04T04:06:40;19.40;99.90
17174;DHT22;8702;48.130;-1.696;2022-09-04T04:09:31;19.40;99.90
17174;DHT22;8702;48.130;-1.696;2022-09-04T04:12:20;19.40;99.90
17174;DHT22;8702;48.130;-1.696;2022-09-04T04:15:11;19.40;99.90
17174;DHT22;8702;48.130;-1.696;2022-09-04T04:17:51;19.40;99.90
17174;DHT22;8702;48.130;-1.696;2022-09-04T04:20:30;19.40;99.90
17174;DHT22;8702;48.130;-1.696;2022-09-04T04:23:13;19.40;99.90
17174;DHT22;8702;48.130;-1.696;2022-09-04T04:25:54;19.40;99.90
17174;DHT22;8702;48.130;-1.696;2022-09-04T04:31:34;19.40;99.90
17174;DHT22;8702;48.130;-1.696;2022-09-04T04:34:11;19.40;99.90
17174;DHT22;8702;48.130;-1.696;2022-09-04T04:36:53;19.40;99.90
17174;DHT22;8702;48.130;-1.696;2022-09-04T04:39:25;19.40;99.90
17174;DHT22;8702;48.130;-1.696;2022-09-04T04:42:11;19.40;99.90
17174;DHT22;8702;48.130;-1.696;2022-09-04T04:44:55;19.40;99.90
17174;DHT22;8702;48.130;-1.696;2022-09-04T04:47:58;19.40;99.90
17174;DHT22;8702;48.130;-1.696;2022-09-04T04:50:39;19.40;99.90
17174;DHT22;8702;48.130;-1.696;2022-09-04T04:53:18;19.40;99.90
17174;DHT22;8702;48.130;-1.696;2022-09-04T04:55:52;19.30;99.90
17174;DHT22;8702;48.130;-1.696;2022-09-04T04:58:39;18.90;99.90
17174;DHT22;8702;48.130;-1.696;2022-09-04T05:01:15;19.30;99.90
17174;DHT22;8702;48.130;-1.696;2022-09-04T05:03:56;19.30;99.90
17174;DHT22;8702;48.130;-1.696;2022-09-04T05:06:32;19.30;99.90
17174;DHT22;8702;48.130;-1.696;2022-09-04T05:09:11;19.30;99.90
17174;DHT22;8702;48.130;-1.696;2022-09-04T05:11:49;19.30;99.90
17174;DHT22;8702;48.130;-1.696;2022-09-04T05:14:29;19.30;99.90
17174;DHT22;8702;48.130;-1.696;2022-09-04T05:17:05;19.20;99.90
17174;DHT22;8702;48.130;-1.696;2022-09-04T05:19:40;19.20;99.90
17174;DHT22;8702;48.130;-1.696;2022-09-04T05:22:16;19.20;99.90
17174;DHT22;8702;48.130;-1.696;2022-09-04T05:24:51;19.10;99.90
17174;DHT22;8702;48.130;-1.696;2022-09-04T05:27:50;19.10;99.90
17174;DHT22;8702;48.130;-1.696;2022-09-04T05:30:22;19.10;99.90
17174;DHT22;8702;48.130;-1.696;2022-09-04T05:32:55;19.10;99.90
17174;DHT22;8702;48.130;-1.696;2022-09-04T05:35:31;19.00;99.90
17174;DHT22;8702;48.130;-1.696;2022-09-04T05:38:07;19.00;99.90
17174;DHT22;8702;48.130;-1.696;2022-09-04T05:40:55;18.90;99.90
17174;DHT22;8702;48.130;-1.696;2022-09-04T05:43:37;19.00;99.90
17174;DHT22;8702;48.130;-1.696;2022-09-04T05:46:16;19.00;99.90
17174;DHT22;8702;48.130;-1.696;2022-09-04T05:48:52;18.90;99.90
17174;DHT22;8702;48.130;-1.696;2022-09-04T05:51:41;18.90;99.90
17174;DHT22;8702;48.130;-1.696;2022-09-04T05:57:27;18.90;99.90
17174;DHT22;8702;48.130;-1.696;2022-09-04T06:00:08;18.80;99.90
17174;DHT22;8702;48.130;-1.696;2022-09-04T06:06:10;18.90;99.90
17174;DHT22;8702;48.130;-1.696;2022-09-04T06:08:55;18.90;99.90
17174;DHT22;8702;48.130;-1.696;2022-09-04T06:11:46;18.80;99.90
17174;DHT22;8702;48.130;-1.696;2022-09-04T06:14:29;18.80;99.90
17174;DHT22;8702;48.130;-1.696;2022-09-04T06:17:16;18.80;99.90
17174;DHT22;8702;48.130;-1.696;2022-09-04T06:20:17;18.80;99.90
17174;DHT22;8702;48.130;-1.696;2022-09-04T06:22:56;18.80;99.90
17174;DHT22;8702;48.130;-1.696;2022-09-04T06:25:40;18.80;99.90
17174;DHT22;8702;48.130;-1.696;2022-09-04T06:28:24;18.80;99.90
17174;DHT22;8702;48.130;-1.696;2022-09-04T06:31:02;18.90;99.90
17174;DHT22;8702;48.130;-1.696;2022-09-04T06:33:44;18.80;99.90
17174;DHT22;8702;48.130;-1.696;2022-09-04T06:39:30;18.90;99.90
17174;DHT22;8702;48.130;-1.696;2022-09-04T06:42:13;18.90;99.90
17174;DHT22;8702;48.130;-1.696;2022-09-04T06:44:55;18.90;99.90
17174;DHT22;8702;48.130;-1.696;2022-09-04T06:47:38;18.90;99.90
17174;DHT22;8702;48.130;-1.696;2022-09-04T06:50:18;19.00;99.90
17174;DHT22;8702;48.130;-1.696;2022-09-04T06:52:58;19.00;99.90
17174;DHT22;8702;48.130;-1.696;2022-09-04T06:55:33;19.10;99.90
17174;DHT22;8702;48.130;-1.696;2022-09-04T06:58:17;19.10;99.90
17174;DHT22;8702;48.130;-1.696;2022-09-04T07:00:51;19.20;99.90
17174;DHT22;8702;48.130;-1.696;2022-09-04T07:03:33;19.20;99.90
17174;DHT22;8702;48.130;-1.696;2022-09-04T07:06:08;19.20;99.90
17174;DHT22;8702;48.130;-1.696;2022-09-04T07:08:46;19.20;99.90
17174;DHT22;8702;48.130;-1.696;2022-09-04T07:11:22;19.30;99.90
17174;DHT22;8702;48.130;-1.696;2022-09-04T07:14:11;19.50;99.90
17174;DHT22;8702;48.130;-1.696;2022-09-04T07:16:49;19.40;99.90
17174;DHT22;8702;48.130;-1.696;2022-09-04T07:19:49;19.50;99.90
17174;DHT22;8702;48.130;-1.696;2022-09-04T07:25:43;19.60;99.90
17174;DHT22;8702;48.130;-1.696;2022-09-04T07:28:28;19.60;99.90
17174;DHT22;8702;48.130;-1.696;2022-09-04T07:31:00;19.70;99.90
17174;DHT22;8702;48.130;-1.696;2022-09-04T07:33:34;19.70;99.90
17174;DHT22;8702;48.130;-1.696;2022-09-04T07:36:13;19.70;99.90
17174;DHT22;8702;48.130;-1.696;2022-09-04T07:38:47;19.80;99.90
17174;DHT22;8702;48.130;-1.696;2022-09-04T07:41:22;19.80;99.90
17174;DHT22;8702;48.130;-1.696;2022-09-04T07:44:01;19.80;99.90
17174;DHT22;8702;48.130;-1.696;2022-09-04T07:46:38;19.90;99.90
17174;DHT22;8702;48.130;-1.696;2022-09-04T07:49:14;19.90;99.90
17174;DHT22;8702;48.130;-1.696;2022-09-04T07:51:51;20.00;99.90
17174;DHT22;8702;48.130;-1.696;2022-09-04T07:54:33;20.00;99.90
17174;DHT22;8702;48.130;-1.696;2022-09-04T07:57:27;20.00;99.90
17174;DHT22;8702;48.130;-1.696;2022-09-04T08:00:04;20.10;99.90
17174;DHT22;8702;48.130;-1.696;2022-09-04T08:02:52;20.10;99.90
17174;DHT22;8702;48.130;-1.696;2022-09-04T08:05:23;20.20;99.90
17174;DHT22;8702;48.130;-1.696;2022-09-04T08:11:38;20.20;99.90
17174;DHT22;8702;48.130;-1.696;2022-09-04T08:14:25;20.30;99.90
17174;DHT22;8702;48.130;-1.696;2022-09-04T08:17:32;20.40;99.90
17174;DHT22;8702;48.130;-1.696;2022-09-04T08:20:06;20.40;99.90
17174;DHT22;8702;48.130;-1.696;2022-09-04T08:22:42;20.50;99.90
17174;DHT22;8702;48.130;-1.696;2022-09-04T08:25:21;20.60;99.90
17174;DHT22;8702;48.130;-1.696;2022-09-04T08:28:12;20.60;99.90
17174;DHT22;8702;48.130;-1.696;2022-09-04T08:30:48;20.70;99.90
17174;DHT22;8702;48.130;-1.696;2022-09-04T08:33:38;20.70;99.90
17174;DHT22;8702;48.130;-1.696;2022-09-04T08:36:19;20.70;99.90
17174;DHT22;8702;48.130;-1.696;2022-09-04T08:39:05;20.70;99.90
17174;DHT22;8702;48.130;-1.696;2022-09-04T08:42:16;20.70;99.90
17174;DHT22;8702;48.130;-1.696;2022-09-04T08:48:24;20.90;99.90
17174;DHT22;8702;48.130;-1.696;2022-09-04T08:57:48;21.10;99.90
17174;DHT22;8702;48.130;-1.696;2022-09-04T09:00:21;21.20;99.90
17174;DHT22;8702;48.130;-1.696;2022-09-04T09:12:30;21.30;99.90
17174;DHT22;8702;48.130;-1.696;2022-09-04T09:15:28;21.40;99.90
17174;DHT22;8702;48.130;-1.696;2022-09-04T09:18:01;21.50;99.90
17174;DHT22;8702;48.130;-1.696;2022-09-04T09:20:33;21.50;99.90
17174;DHT22;8702;48.130;-1.696;2022-09-04T09:23:30;21.60;99.90
17174;DHT22;8702;48.130;-1.696;2022-09-04T09:26:24;21.60;99.90
17174;DHT22;8702;48.130;-1.696;2022-09-04T09:29:23;21.70;99.90
17174;DHT22;8702;48.130;-1.696;2022-09-04T09:32:20;21.70;99.90
17174;DHT22;8702;48.130;-1.696;2022-09-04T09:38:34;21.80;99.90
17174;DHT22;8702;48.130;-1.696;2022-09-04T09:41:29;21.80;99.90
17174;DHT22;8702;48.130;-1.696;2022-09-04T09:56:40;22.10;99.90
17174;DHT22;8702;48.130;-1.696;2022-09-04T10:06:15;22.30;99.90
17174;DHT22;8702;48.130;-1.696;2022-09-04T10:12:31;22.60;99.90
17174;DHT22;8702;48.130;-1.696;2022-09-04T10:24:34;23.00;99.90
17174;DHT22;8702;48.130;-1.696;2022-09-04T10:27:31;23.10;99.90
17174;DHT22;8702;48.130;-1.696;2022-09-04T10:30:09;23.10;99.90
17174;DHT22;8702;48.130;-1.696;2022-09-04T10:35:55;23.20;99.90
17174;DHT22;8702;48.130;-1.696;2022-09-04T10:38:36;23.20;99.90
17174;DHT22;8702;48.130;-1.696;2022-09-04T10:41:43;23.30;99.90
17174;DHT22;8702;48.130;-1.696;2022-09-04T10:44:48;23.30;99.90
17174;DHT22;8702;48.130;-1.696;2022-09-04T10:47:28;23.30;99.90
17174;DHT22;8702;48.130;-1.696;2022-09-04T10:50:10;23.40;99.90
17174;DHT22;8702;48.130;-1.696;2022-09-04T10:53:09;23.50;99.90
17174;DHT22;8702;48.130;-1.696;2022-09-04T10:55:55;23.60;99.90
17174;DHT22;8702;48.130;-1.696;2022-09-04T10:58:32;23.70;99.90
17174;DHT22;8702;48.130;-1.696;2022-09-04T11:07:24;23.60;99.20
17174;DHT22;8702;48.130;-1.696;2022-09-04T11:13:05;23.70;99.40
17174;DHT22;8702;48.130;-1.696;2022-09-04T11:15:47;23.70;99.50
17174;DHT22;8702;48.130;-1.696;2022-09-04T11:21:49;23.80;99.10
17174;DHT22;8702;48.130;-1.696;2022-09-04T11:28:05;23.90;99.00
17174;DHT22;8702;48.130;-1.696;2022-09-04T11:30:56;24.00;98.90
17174;DHT22;8702;48.130;-1.696;2022-09-04T11:34:09;24.00;98.20
17174;DHT22;8702;48.130;-1.696;2022-09-04T11:43:30;23.90;95.80
17174;DHT22;8702;48.130;-1.696;2022-09-04T11:46:32;24.00;96.50
17174;DHT22;8702;48.130;-1.696;2022-09-04T11:49:29;24.20;97.00
17174;DHT22;8702;48.130;-1.696;2022-09-04T11:52:32;24.30;96.80
17174;DHT22;8702;48.130;-1.696;2022-09-04T11:55:28;24.40;96.60
17174;DHT22;8702;48.130;-1.696;2022-09-04T12:01:02;24.70;96.50
17174;DHT22;8702;48.130;-1.696;2022-09-04T12:04:13;24.70;95.90
17174;DHT22;8702;48.130;-1.696;2022-09-04T12:06:58;24.60;95.70
17174;DHT22;8702;48.130;-1.696;2022-09-04T12:09:50;24.70;96.50
17174;DHT22;8702;48.130;-1.696;2022-09-04T12:12:44;24.80;96.20
17174;DHT22;8702;48.130;-1.696;2022-09-04T12:16:10;24.90;96.50
17174;DHT22;8702;48.130;-1.696;2022-09-04T12:19:12;24.90;96.50
17174;DHT22;8702;48.130;-1.696;2022-09-04T12:22:09;25.00;96.20
17174;DHT22;8702;48.130;-1.696;2022-09-04T12:30:59;25.00;95.80
17174;DHT22;8702;48.130;-1.696;2022-09-04T12:33:58;25.00;95.80
17174;DHT22;8702;48.130;-1.696;2022-09-04T12:36:58;25.00;95.30
17174;DHT22;8702;48.130;-1.696;2022-09-04T12:42:38;25.10;95.50
17174;DHT22;8702;48.130;-1.696;2022-09-04T12:45:15;25.10;95.60
17174;DHT22;8702;48.130;-1.696;2022-09-04T12:47:50;25.20;95.80
17174;DHT22;8702;48.130;-1.696;2022-09-04T12:50:33;25.20;95.60
17174;DHT22;8702;48.130;-1.696;2022-09-04T12:55:56;25.30;95.60
17174;DHT22;8702;48.130;-1.696;2022-09-04T12:58:37;25.30;95.10
17174;DHT22;8702;48.130;-1.696;2022-09-04T13:01:12;25.40;95.20
17174;DHT22;8702;48.130;-1.696;2022-09-04T13:03:48;25.40;95.40
17174;DHT22;8702;48.130;-1.696;2022-09-04T13:06:26;25.50;95.60
17174;DHT22;8702;48.130;-1.696;2022-09-04T13:09:10;25.60;95.20
17174;DHT22;8702;48.130;-1.696;2022-09-04T13:11:46;25.70;95.00
17174;DHT22;8702;48.130;-1.696;2022-09-04T13:17:12;25.90;94.40
17174;DHT22;8702;48.130;-1.696;2022-09-04T13:19:46;25.70;94.40
17174;DHT22;8702;48.130;-1.696;2022-09-04T13:22:29;25.80;95.30
17174;DHT22;8702;48.130;-1.696;2022-09-04T13:25:06;25.90;95.10
17174;DHT22;8702;48.130;-1.696;2022-09-04T13:27:48;25.90;95.10
17174;DHT22;8702;48.130;-1.696;2022-09-04T13:30:19;26.10;94.90
17174;DHT22;8702;48.130;-1.696;2022-09-04T13:33:15;26.10;94.30
17174;DHT22;8702;48.130;-1.696;2022-09-04T13:36:05;26.00;94.20
17174;DHT22;8702;48.130;-1.696;2022-09-04T13:39:25;25.90;94.40
17174;DHT22;8702;48.130;-1.696;2022-09-04T13:42:26;25.90;94.50
17174;DHT22;8702;48.130;-1.696;2022-09-04T13:45:04;26.00;94.20
17174;DHT22;8702;48.130;-1.696;2022-09-04T13:47:41;26.00;94.60
17174;DHT22;8702;48.130;-1.696;2022-09-04T13:50:18;26.20;94.90
17174;DHT22;8702;48.130;-1.696;2022-09-04T13:52:51;26.40;94.90
17174;DHT22;8702;48.130;-1.696;2022-09-04T13:55:24;26.50;94.40
17174;DHT22;8702;48.130;-1.696;2022-09-04T13:57:57;26.60;94.70
17174;DHT22;8702;48.130;-1.696;2022-09-04T14:00:25;26.80;94.50
17174;DHT22;8702;48.130;-1.696;2022-09-04T14:02:58;26.90;94.60
17174;DHT22;8702;48.130;-1.696;2022-09-04T14:05:27;26.90;94.20
17174;DHT22;8702;48.130;-1.696;2022-09-04T14:08:00;26.90;94.00
17174;DHT22;8702;48.130;-1.696;2022-09-04T14:11:03;26.70;93.80
17174;DHT22;8702;48.130;-1.696;2022-09-04T14:13:50;26.70;94.10
17174;DHT22;8702;48.130;-1.696;2022-09-04T14:16:20;26.70;94.00
17174;DHT22;8702;48.130;-1.696;2022-09-04T14:18:57;26.80;94.20
17174;DHT22;8702;48.130;-1.696;2022-09-04T14:21:42;26.80;93.90
17174;DHT22;8702;48.130;-1.696;2022-09-04T14:24:19;27.00;94.20
17174;DHT22;8702;48.130;-1.696;2022-09-04T14:26:52;27.20;94.50
17174;DHT22;8702;48.130;-1.696;2022-09-04T14:29:30;27.10;93.50
17174;DHT22;8702;48.130;-1.696;2022-09-04T14:32:09;27.00;93.60
17174;DHT22;8702;48.130;-1.696;2022-09-04T14:34:50;27.00;93.90
17174;DHT22;8702;48.130;-1.696;2022-09-04T14:37:32;27.00;93.90
17174;DHT22;8702;48.130;-1.696;2022-09-04T14:40:05;27.00;94.00
17174;DHT22;8702;48.130;-1.696;2022-09-04T14:42:44;26.90;93.60
17174;DHT22;8702;48.130;-1.696;2022-09-04T14:45:25;26.80;93.70
17174;DHT22;8702;48.130;-1.696;2022-09-04T14:47:58;26.80;93.80
17174;DHT22;8702;48.130;-1.696;2022-09-04T14:50:30;26.80;93.90
17174;DHT22;8702;48.130;-1.696;2022-09-04T14:53:01;26.90;94.00
17174;DHT22;8702;48.130;-1.696;2022-09-04T14:55:31;27.10;93.80
17174;DHT22;8702;48.130;-1.696;2022-09-04T14:58:04;27.20;93.70
17174;DHT22;8702;48.130;-1.696;2022-09-04T15:00:52;27.20;93.50
17174;DHT22;8702;48.130;-1.696;2022-09-04T15:03:24;27.20;92.80
17174;DHT22;8702;48.130;-1.696;2022-09-04T15:05:56;27.30;93.50
17174;DHT22;8702;48.130;-1.696;2022-09-04T15:08:27;27.40;93.60
17174;DHT22;8702;48.130;-1.696;2022-09-04T15:10:56;27.60;93.60
17174;DHT22;8702;48.130;-1.696;2022-09-04T15:13:37;27.80;93.80
17174;DHT22;8702;48.130;-1.696;2022-09-04T15:16:18;28.00;93.40
17174;DHT22;8702;48.130;-1.696;2022-09-04T15:18:55;28.20;93.40
17174;DHT22;8702;48.130;-1.696;2022-09-04T15:21:30;28.30;92.90
17174;DHT22;8702;48.130;-1.696;2022-09-04T15:24:02;28.40;92.90
17174;DHT22;8702;48.130;-1.696;2022-09-04T15:26:38;28.40;92.80
17174;DHT22;8702;48.130;-1.696;2022-09-04T15:29:15;28.50;92.70
17174;DHT22;8702;48.130;-1.696;2022-09-04T15:31:44;28.70;92.80
17174;DHT22;8702;48.130;-1.696;2022-09-04T15:34:19;28.80;92.60
17174;DHT22;8702;48.130;-1.696;2022-09-04T15:36:47;28.80;92.50
17174;DHT22;8702;48.130;-1.696;2022-09-04T15:39:25;28.80;92.50
17174;DHT22;8702;48.130;-1.696;2022-09-04T15:41:53;28.80;91.40
17174;DHT22;8702;48.130;-1.696;2022-09-04T15:44:25;28.70;91.90
17174;DHT22;8702;48.130;-1.696;2022-09-04T15:47:00;28.80;92.30
17174;DHT22;8702;48.130;-1.696;2022-09-04T15:49:40;28.80;91.80
17174;DHT22;8702;48.130;-1.696;2022-09-04T15:52:21;29.00;92.10
17174;DHT22;8702;48.130;-1.696;2022-09-04T15:54:59;29.10;91.90
17174;DHT22;8702;48.130;-1.696;2022-09-04T15:57:37;29.20;91.80
17174;DHT22;8702;48.130;-1.696;2022-09-04T16:00:12;29.30;92.10
17174;DHT22;8702;48.130;-1.696;2022-09-04T16:02:47;29.40;91.70
17174;DHT22;8702;48.130;-1.696;2022-09-04T16:05:23;29.40;91.80
17174;DHT22;8702;48.130;-1.696;2022-09-04T16:07:57;29.60;91.90
17174;DHT22;8702;48.130;-1.696;2022-09-04T16:10:41;29.60;91.50
17174;DHT22;8702;48.130;-1.696;2022-09-04T16:13:40;29.60;91.10
17174;DHT22;8702;48.130;-1.696;2022-09-04T16:16:13;29.70;91.40
17174;DHT22;8702;48.130;-1.696;2022-09-04T16:18:48;29.80;91.20
17174;DHT22;8702;48.130;-1.696;2022-09-04T16:21:23;29.80;90.80
17174;DHT22;8702;48.130;-1.696;2022-09-04T16:23:50;29.70;91.10
17174;DHT22;8702;48.130;-1.696;2022-09-04T16:26:28;29.80;91.40
17174;DHT22;8702;48.130;-1.696;2022-09-04T16:29:00;29.70;91.00
17174;DHT22;8702;48.130;-1.696;2022-09-04T16:31:32;29.50;90.30
17174;DHT22;8702;48.130;-1.696;2022-09-04T16:34:02;29.40;90.80
17174;DHT22;8702;48.130;-1.696;2022-09-04T16:36:36;29.40;91.10
17174;DHT22;8702;48.130;-1.696;2022-09-04T16:39:09;29.40;91.10
17174;DHT22;8702;48.130;-1.696;2022-09-04T16:41:42;29.20;90.70
17174;DHT22;8702;48.130;-1.696;2022-09-04T16:44:18;29.20;90.80
17174;DHT22;8702;48.130;-1.696;2022-09-04T16:46:55;29.20;90.60
17174;DHT22;8702;48.130;-1.696;2022-09-04T16:49:34;29.30;90.90
17174;DHT22;8702;48.130;-1.696;2022-09-04T16:52:23;29.30;90.70
17174;DHT22;8702;48.130;-1.696;2022-09-04T16:54:55;29.20;90.70
17174;DHT22;8702;48.130;-1.696;2022-09-04T16:57:32;29.10;90.80
17174;DHT22;8702;48.130;-1.696;2022-09-04T17:00:08;29.00;90.70
17174;DHT22;8702;48.130;-1.696;2022-09-04T17:02:42;29.30;91.10
17174;DHT22;8702;48.130;-1.696;2022-09-04T17:05:20;28.90;90.90
17174;DHT22;8702;48.130;-1.696;2022-09-04T17:07:54;28.90;91.10
17174;DHT22;8702;48.130;-1.696;2022-09-04T17:10:32;28.90;91.20
17174;DHT22;8702;48.130;-1.696;2022-09-04T17:13:05;28.90;91.00
17174;DHT22;8702;48.130;-1.696;2022-09-04T17:15:43;28.80;91.00
17174;DHT22;8702;48.130;-1.696;2022-09-04T17:18:13;28.80;91.00
17174;DHT22;8702;48.130;-1.696;2022-09-04T17:20:45;28.60;91.00
17174;DHT22;8702;48.130;-1.696;2022-09-04T17:23:22;28.60;91.00
17174;DHT22;8702;48.130;-1.696;2022-09-04T17:25:54;28.60;91.20
17174;DHT22;8702;48.130;-1.696;2022-09-04T17:28:48;28.60;91.20
17174;DHT22;8702;48.130;-1.696;2022-09-04T17:31:22;28.70;91.00
17174;DHT22;8702;48.130;-1.696;2022-09-04T17:33:56;29.00;91.20
17174;DHT22;8702;48.130;-1.696;2022-09-04T17:36:29;29.40;90.90
17174;DHT22;8702;48.130;-1.696;2022-09-04T17:39:01;29.40;90.70
17174;DHT22;8702;48.130;-1.696;2022-09-04T17:41:38;29.30;90.90
17174;DHT22;8702;48.130;-1.696;2022-09-04T17:44:26;29.30;90.90
17174;DHT22;8702;48.130;-1.696;2022-09-04T17:47:07;29.80;91.10
17174;DHT22;8702;48.130;-1.696;2022-09-04T17:49:39;28.80;90.60
17174;DHT22;8702;48.130;-1.696;2022-09-04T17:52:08;28.70;90.80
17174;DHT22;8702;48.130;-1.696;2022-09-04T17:54:40;28.50;90.70
17174;DHT22;8702;48.130;-1.696;2022-09-04T17:57:17;28.20;90.90
17174;DHT22;8702;48.130;-1.696;2022-09-04T17:59:50;28.10;91.10
17174;DHT22;8702;48.130;-1.696;2022-09-04T18:02:24;27.90;91.10
17174;DHT22;8702;48.130;-1.696;2022-09-04T18:04:58;27.70;91.20
17174;DHT22;8702;48.130;-1.696;2022-09-04T18:07:31;27.60;91.40
17174;DHT22;8702;48.130;-1.696;2022-09-04T18:10:17;27.40;91.40
17174;DHT22;8702;48.130;-1.696;2022-09-04T18:12:51;27.30;91.60
17174;DHT22;8702;48.130;-1.696;2022-09-04T18:15:27;27.30;91.60
17174;DHT22;8702;48.130;-1.696;2022-09-04T18:18:00;27.20;91.70
17174;DHT22;8702;48.130;-1.696;2022-09-04T18:20:39;27.10;91.80
17174;DHT22;8702;48.130;-1.696;2022-09-04T18:23:28;27.00;92.00
17174;DHT22;8702;48.130;-1.696;2022-09-04T18:26:07;26.90;92.20
17174;DHT22;8702;48.130;-1.696;2022-09-04T18:28:40;26.80;92.20
17174;DHT22;8702;48.130;-1.696;2022-09-04T18:31:17;26.60;92.30
17174;DHT22;8702;48.130;-1.696;2022-09-04T18:33:57;26.40;93.00
17174;DHT22;8702;48.130;-1.696;2022-09-04T18:36:32;26.20;93.60
17174;DHT22;8702;48.130;-1.696;2022-09-04T18:39:06;25.90;94.20
17174;DHT22;8702;48.130;-1.696;2022-09-04T18:41:48;25.80;94.30
17174;DHT22;8702;48.130;-1.696;2022-09-04T18:44:20;25.70;94.20
17174;DHT22;8702;48.130;-1.696;2022-09-04T18:46:50;25.50;94.70
17174;DHT22;8702;48.130;-1.696;2022-09-04T18:49:19;25.40;94.80
17174;DHT22;8702;48.130;-1.696;2022-09-04T18:51:51;25.30;94.90
17174;DHT22;8702;48.130;-1.696;2022-09-04T18:54:32;25.30;94.90
17174;DHT22;8702;48.130;-1.696;2022-09-04T18:57:12;25.20;95.10